Time;durP1;ratioP1;P1;durP2;ratioP2;P2;SDS_P1;SDS_P2;PMS_P1;PMS_P2;Temp;Humidity;BMP_temperature;BMP_pressure;BME280_temperature;BME280_humidity;BME280_pressure;Samples;Min_cycle;Max_cycle;Signal;HPM_P1;HPM_P2
2023/07/11 00:04:52;;;;;;;3.50;2.83;;;;;;;;;;10254905;28;20387;-56
2023/07/11 00:09:53;;;;;;;3.55;2.90;;;;;;;;;;10263101;28;20421;-57
2023/07/11 00:14:54;;;;;;;3.70;2.70;;;;;;;;;;10281836;28;20031;-56
2023/07/11 00:19:58;;;;;;;4.50;2.90;;;;;;;;;;10274539;28;20035;-59
2023/07/11 00:24:58;;;;;;;3.35;3.05;;;;;;;;;;10270873;28;20124;-56
2023/07/11 00:29:59;;;;;;;3.13;2.83;;;;;;;;;;10274890;28;20148;-56
2023/07/11 00:34:59;;;;;;;4.40;3.28;;;;;;;;;;10277821;28;20034;-56
2023/07/11 00:40:00;;;;;;;3.85;2.78;;;;;;;;;;10288799;28;20026;-55
2023/07/11 00:45:03;;;;;;;3.33;3.03;;;;;;;;;;10281949;28;20027;-58
2023/07/11 00:50:07;;;;;;;3.75;3.03;;;;;;;;;;10289109;28;20027;-57
2023/07/11 00:55:13;;;;;;;3.65;2.85;;;;;;;;;;10282852;28;20027;-58
2023/07/11 01:00:14;;;;;;;4.10;2.70;;;;;;;;;;10278369;28;20022;-57
2023/07/11 01:05:14;;;;;;;4.90;2.90;;;;;;;;;;10286356;28;20446;-57
2023/07/11 01:10:15;;;;;;;5.03;3.13;;;;;;;;;;10286034;28;20087;-58
2023/07/11 01:15:16;;;;;;;3.13;2.40;;;;;;;;;;10289004;28;20062;-58
2023/07/11 01:20:17;;;;;;;4.50;2.92;;;;;;;;;;10280326;28;20038;-57
2023/07/11 01:25:18;;;;;;;3.28;2.72;;;;;;;;;;10279915;28;20031;-57
2023/07/11 01:30:22;;;;;;;2.90;2.60;;;;;;;;;;10285451;28;20066;-56
2023/07/11 01:35:23;;;;;;;4.70;2.67;;;;;;;;;;10287155;28;20038;-56
2023/07/11 01:40:23;;;;;;;3.13;2.80;;;;;;;;;;10286115;28;20025;-57
2023/07/11 01:45:24;;;;;;;3.30;2.90;;;;;;;;;;10285488;28;20042;-57
2023/07/11 01:50:25;;;;;;;5.40;3.00;;;;;;;;;;10287026;28;20270;-57
2023/07/11 01:55:25;;;;;;;3.78;2.78;;;;;;;;;;10281295;28;20505;-57
2023/07/11 02:00:26;;;;;;;3.15;2.78;;;;;;;;;;10273295;28;20410;-58
2023/07/11 02:05:27;;;;;;;3.65;2.92;;;;;;;;;;10282818;28;20398;-57
2023/07/11 02:10:27;;;;;;;3.35;2.80;;;;;;;;;;10281884;28;20046;-57
2023/07/11 02:15:28;;;;;;;4.05;2.83;;;;;;;;;;10285975;28;20023;-56
2023/07/11 02:20:28;;;;;;;3.33;2.55;;;;;;;;;;10261756;28;20042;-57
2023/07/11 02:25:29;;;;;;;4.15;3.00;;;;;;;;;;10284497;28;20043;-56
2023/07/11 02:30:30;;;;;;;3.20;2.70;;;;;;;;;;10281750;28;20522;-57
2023/07/11 02:35:30;;;;;;;2.70;2.50;;;;;;;;;;10267528;28;20483;-58
2023/07/11 02:40:31;;;;;;;4.03;3.10;;;;;;;;;;10284409;28;20035;-62
2023/07/11 02:45:31;;;;;;;2.70;2.45;;;;;;;;;;10273796;28;20027;-57
2023/07/11 02:50:32;;;;;;;2.80;2.40;;;;;;;;;;10285106;28;20494;-58
2023/07/11 02:55:37;;;;;;;3.53;2.75;;;;;;;;;;10284732;28;20050;-57
2023/07/11 03:00:38;;;;;;;3.08;2.60;;;;;;;;;;10283751;28;20058;-58
2023/07/11 03:05:57;;;;;;;5.38;2.88;;;;;;;;;;10284979;28;20109;-58
2023/07/11 03:11:00;;;;;;;3.03;2.72;;;;;;;;;;10276720;28;20130;-58
2023/07/11 03:16:02;;;;;;;2.90;2.60;;;;;;;;;;10281262;28;20031;-58
2023/07/11 03:21:03;;;;;;;3.38;2.97;;;;;;;;;;10271611;28;20122;-57
2023/07/11 03:26:04;;;;;;;4.47;2.97;;;;;;;;;;10271799;28;20023;-57
2023/07/11 03:31:04;;;;;;;2.42;2.22;;;;;;;;;;10283373;28;20101;-57
2023/07/11 03:36:05;;;;;;;3.75;2.95;;;;;;;;;;10281194;28;20034;-57
2023/07/11 03:41:06;;;;;;;3.05;2.75;;;;;;;;;;10282767;28;20042;-61
2023/07/11 03:46:06;;;;;;;2.92;2.70;;;;;;;;;;10282219;28;20027;-56
2023/07/11 03:51:07;;;;;;;3.25;2.95;;;;;;;;;;10283846;28;20034;-57
2023/07/11 03:56:08;;;;;;;3.47;2.67;;;;;;;;;;10272565;28;20367;-57
2023/07/11 04:01:08;;;;;;;3.10;2.80;;;;;;;;;;10259298;28;20023;-61
2023/07/11 04:06:09;;;;;;;2.92;2.67;;;;;;;;;;10277212;28;20030;-58
2023/07/11 04:11:10;;;;;;;3.08;2.40;;;;;;;;;;10281393;28;20402;-57
2023/07/11 04:16:11;;;;;;;3.20;2.80;;;;;;;;;;10278013;28;20027;-57
2023/07/11 04:21:11;;;;;;;2.92;2.55;;;;;;;;;;10289278;28;20358;-59
2023/07/11 04:26:12;;;;;;;2.88;2.50;;;;;;;;;;10288880;28;20170;-57
2023/07/11 04:31:13;;;;;;;3.42;2.53;;;;;;;;;;10289427;28;20491;-56
2023/07/11 04:36:15;;;;;;;2.70;2.50;;;;;;;;;;10287772;28;21141;-55
2023/07/11 04:41:16;;;;;;;2.83;2.42;;;;;;;;;;10287739;28;20031;-55
2023/07/11 04:46:17;;;;;;;3.67;2.80;;;;;;;;;;10289745;28;20023;-55
2023/07/11 04:51:18;;;;;;;3.53;3.05;;;;;;;;;;10270245;28;20460;-56
2023/07/11 04:56:18;;;;;;;2.78;2.50;;;;;;;;;;10289606;28;20431;-56
2023/07/11 05:01:19;;;;;;;2.60;2.40;;;;;;;;;;10276336;28;20026;-58
2023/07/11 05:06:20;;;;;;;2.97;2.67;;;;;;;;;;10287792;28;20019;-59
2023/07/11 05:11:21;;;;;;;5.72;2.80;;;;;;;;;;10287075;28;20059;-58
2023/07/11 05:16:25;;;;;;;6.22;2.85;;;;;;;;;;10287537;28;20041;-59
2023/07/11 05:21:27;;;;;;;2.90;2.67;;;;;;;;;;10286534;28;20038;-57
2023/07/11 05:26:28;;;;;;;3.88;2.88;;;;;;;;;;10286782;28;20034;-58
2023/07/11 05:31:29;;;;;;;3.15;2.85;;;;;;;;;;10287219;28;20698;-57
2023/07/11 05:36:35;;;;;;;3.20;2.85;;;;;;;;;;10284759;28;20046;-56
2023/07/11 05:41:37;;;;;;;3.50;2.60;;;;;;;;;;10283228;28;20034;-57
2023/07/11 05:46:39;;;;;;;3.70;2.88;;;;;;;;;;10285737;28;20140;-57
2023/07/11 05:51:40;;;;;;;4.53;2.80;;;;;;;;;;10284792;28;20035;-59
2023/07/11 05:56:41;;;;;;;14.45;7.13;;;;;;;;;;10282314;28;20030;-57
2023/07/11 06:01:42;;;;;;;25.20;8.48;;;;;;;;;;10282876;28;20050;-58
2023/07/11 06:06:43;;;;;;;17.08;8.30;;;;;;;;;;10280605;28;20035;-58
2023/07/11 06:11:49;;;;;;;10.18;7.97;;;;;;;;;;10282915;28;20069;-57
2023/07/11 06:16:49;;;;;;;19.65;8.63;;;;;;;;;;10284574;28;20496;-58
2023/07/11 06:21:50;;;;;;;11.57;7.80;;;;;;;;;;10269801;28;20026;-58
2023/07/11 06:26:50;;;;;;;20.88;8.48;;;;;;;;;;10268223;28;20546;-58
2023/07/11 06:31:51;;;;;;;25.10;9.32;;;;;;;;;;10291569;28;20530;-58
2023/07/11 06:36:52;;;;;;;20.90;8.85;;;;;;;;;;10275067;28;20468;-58
2023/07/11 06:41:52;;;;;;;12.90;8.00;;;;;;;;;;10269473;28;20027;-59
2023/07/11 06:46:53;;;;;;;18.95;8.20;;;;;;;;;;10273364;28;20030;-58
2023/07/11 06:51:53;;;;;;;11.75;7.18;;;;;;;;;;10260326;28;20147;-58
2023/07/11 06:56:54;;;;;;;11.70;7.10;;;;;;;;;;10263250;28;20019;-57
2023/07/11 07:01:55;;;;;;;13.02;7.07;;;;;;;;;;10262936;28;20037;-58
2023/07/11 07:06:55;;;;;;;13.07;7.82;;;;;;;;;;10283951;28;20027;-58
2023/07/11 07:11:56;;;;;;;12.38;7.45;;;;;;;;;;10282451;28;20030;-58
2023/07/11 07:16:56;;;;;;;13.15;7.55;;;;;;;;;;10271117;28;20162;-58
2023/07/11 07:21:57;;;;;;;14.80;7.93;;;;;;;;;;10284246;28;20105;-59
2023/07/11 07:26:58;;;;;;;12.50;7.43;;;;;;;;;;10261233;28;20379;-60
2023/07/11 07:31:59;;;;;;;13.48;7.78;;;;;;;;;;10263465;28;20400;-58
2023/07/11 07:37:00;;;;;;;16.30;7.35;;;;;;;;;;10280894;28;20049;-59
2023/07/11 07:42:00;;;;;;;13.32;7.18;;;;;;;;;;10279785;28;20031;-60
2023/07/11 07:47:01;;;;;;;7.93;7.03;;;;;;;;;;10278150;28;20023;-58
2023/07/11 07:52:01;;;;;;;11.88;7.07;;;;;;;;;;10288265;28;20038;-59
2023/07/11 07:57:02;;;;;;;10.25;7.28;;;;;;;;;;10290106;28;20027;-59
2023/07/11 08:02:03;;;;;;;13.35;7.00;;;;;;;;;;10291348;28;20030;-58
2023/07/11 08:07:04;;;;;;;11.75;6.65;;;;;;;;;;10290166;28;20026;-61
2023/07/11 08:12:07;;;;;;;11.18;6.85;;;;;;;;;;10288542;28;20064;-58
2023/07/11 08:17:09;;;;;;;6.93;6.22;;;;;;;;;;10289670;28;20026;-58
2023/07/11 08:22:10;;;;;;;11.10;7.40;;;;;;;;;;10290342;28;20026;-58
2023/07/11 08:27:10;;;;;;;10.02;6.28;;;;;;;;;;10280936;28;20371;-63
2023/07/11 08:32:15;;;;;;;9.38;6.53;;;;;;;;;;10277843;28;20109;-63
2023/07/11 08:37:19;;;;;;;13.15;7.03;;;;;;;;;;10289934;28;20045;-62
2023/07/11 08:42:41;;;;;;;10.32;6.85;;;;;;;;;;10269872;28;20050;-63
2023/07/11 08:47:54;;;;;;;9.10;6.25;;;;;;;;;;10272146;28;20027;-63
2023/07/11 08:53:18;;;;;;;8.93;7.07;;;;;;;;;;10270164;28;20042;-60
2023/07/11 08:58:30;;;;;;;12.02;7.20;;;;;;;;;;10285515;28;20442;-63
2023/07/11 09:03:44;;;;;;;7.88;6.18;;;;;;;;;;10287046;28;20428;-64
2023/07/11 09:08:47;;;;;;;8.52;6.43;;;;;;;;;;10286178;28;20023;-62
2023/07/11 09:14:00;;;;;;;9.00;6.00;;;;;;;;;;10276640;28;20030;-63
2023/07/11 09:19:12;;;;;;;10.45;6.32;;;;;;;;;;10285107;28;20357;-58
2023/07/11 09:24:31;;;;;;;9.82;5.97;;;;;;;;;;10261029;28;20054;-61
2023/07/11 09:29:32;;;;;;;9.45;7.05;;;;;;;;;;10281576;28;20034;-58
2023/07/11 09:34:41;;;;;;;8.75;6.43;;;;;;;;;;10285605;28;20161;-58
2023/07/11 09:40:11;;;;;;;11.80;7.05;;;;;;;;;;10281136;28;20513;-58
2023/07/11 09:45:16;;;;;;;10.50;6.75;;;;;;;;;;10281008;28;20027;-58
2023/07/11 09:50:45;;;;;;;10.98;6.95;;;;;;;;;;10282408;28;20073;-58
2023/07/11 09:55:46;;;;;;;9.93;6.03;;;;;;;;;;10274316;28;20030;-59
2023/07/11 10:00:50;;;;;;;12.70;6.78;;;;;;;;;;10285738;28;20043;-58
2023/07/11 10:05:53;;;;;;;9.30;6.72;;;;;;;;;;10264005;28;20094;-62
2023/07/11 10:11:01;;;;;;;12.57;6.18;;;;;;;;;;10266752;28;20030;-62
2023/07/11 10:16:01;;;;;;;9.80;5.90;;;;;;;;;;10285246;28;20360;-59
2023/07/11 10:21:25;;;;;;;7.97;6.53;;;;;;;;;;10272784;28;20027;-58
2023/07/11 10:26:27;;;;;;;8.43;6.20;;;;;;;;;;10278449;28;20476;-57
2023/07/11 10:31:50;;;;;;;6.85;6.15;;;;;;;;;;10278754;28;20391;-58
2023/07/11 10:36:56;;;;;;;8.50;6.30;;;;;;;;;;10269408;28;20038;-58
2023/07/11 10:42:26;;;;;;;7.50;6.35;;;;;;;;;;10277663;28;20035;-59
2023/07/11 10:47:33;;;;;;;12.65;6.65;;;;;;;;;;10282249;28;20151;-58
2023/07/11 10:52:37;;;;;;;7.20;5.80;;;;;;;;;;10278702;28;20031;-57
2023/07/11 10:57:44;;;;;;;7.43;6.43;;;;;;;;;;10273560;28;20476;-58
2023/07/11 11:03:12;;;;;;;;;;;;;;;;;;10276936;28;20427;-58
2023/07/11 11:08:32;;;;;;;8.40;6.03;;;;;;;;;;10284096;28;20354;-58
2023/07/11 11:14:04;;;;;;;10.68;7.10;;;;;;;;;;10270720;28;20439;-59
2023/07/11 11:19:43;;;;;;;7.78;6.50;;;;;;;;;;10280329;28;20486;-58
2023/07/11 11:25:04;;;;;;;9.77;6.30;;;;;;;;;;10270328;28;20431;-58
2023/07/11 11:30:29;;;;;;;6.93;6.22;;;;;;;;;;10271370;28;20042;-59
2023/07/11 11:36:09;;;;;;;10.55;6.15;;;;;;;;;;10273226;28;20058;-58
2023/07/11 11:41:17;;;;;;;14.32;7.20;;;;;;;;;;10274365;28;20352;-58
2023/07/11 11:46:19;;;;;;;12.35;6.57;;;;;;;;;;10281698;28;20033;-57
2023/07/11 11:51:19;;;;;;;9.00;6.28;;;;;;;;;;10281660;28;20027;-58
2023/07/11 11:56:20;;;;;;;8.40;6.18;;;;;;;;;;10282576;28;20498;-62
2023/07/11 12:01:53;;;;;;;9.30;5.93;;;;;;;;;;10282778;28;20077;-58
2023/07/11 12:07:20;;;;;;;11.13;6.47;;;;;;;;;;10267724;28;20036;-58
2023/07/11 12:12:36;;;;;;;7.05;5.60;;;;;;;;;;10282726;28;20039;-57
2023/07/11 12:17:39;;;;;;;9.13;6.10;;;;;;;;;;10279354;28;20039;-58
2023/07/11 12:22:40;;;;;;;7.10;6.07;;;;;;;;;;10284531;28;20474;-59
2023/07/11 12:28:00;;;;;;;6.63;5.83;;;;;;;;;;10279457;28;20031;-58
2023/07/11 12:33:29;;;;;;;6.53;5.40;;;;;;;;;;10281561;28;20548;-58
2023/07/11 12:38:44;;;;;;;6.82;5.93;;;;;;;;;;10289623;28;20031;-57
2023/07/11 12:43:47;;;;;;;6.68;5.93;;;;;;;;;;10288546;28;20034;-58
2023/07/11 12:48:50;;;;;;;7.88;5.65;;;;;;;;;;10289066;28;20077;-57
2023/07/11 12:54:05;;;;;;;7.28;5.97;;;;;;;;;;10284629;28;20069;-58
2023/07/11 12:59:29;;;;;;;5.88;5.07;;;;;;;;;;10279105;28;20314;-62
2023/07/11 13:04:48;;;;;;;8.90;5.35;;;;;;;;;;10287375;28;20035;-58
2023/07/11 13:09:59;;;;;;;6.75;5.60;;;;;;;;;;10276694;28;20123;-58
2023/07/11 13:15:17;;;;;;;8.05;5.05;;;;;;;;;;10277256;28;20273;-58
2023/07/11 13:20:26;;;;;;;9.90;5.40;;;;;;;;;;10277454;28;20027;-58
2023/07/11 13:25:33;;;;;;;7.38;5.18;;;;;;;;;;10276621;28;20035;-58
2023/07/11 13:30:36;;;;;;;7.53;5.17;;;;;;;;;;10282056;23;20138;-58
2023/07/11 13:35:36;;;;;;;6.30;4.88;;;;;;;;;;10246692;28;20472;-61
2023/07/11 13:40:40;;;;;;;9.85;5.35;;;;;;;;;;10247263;28;20035;-61
2023/07/11 13:45:40;;;;;;;6.65;5.05;;;;;;;;;;10237611;28;20115;-61
2023/07/11 13:50:42;;;;;;;7.57;5.38;;;;;;;;;;10231168;28;20468;-61
2023/07/11 13:55:50;;;;;;;9.05;5.88;;;;;;;;;;10246564;28;20384;-61
2023/07/11 14:00:53;;;;;;;8.98;5.40;;;;;;;;;;10235347;28;20027;-62
2023/07/11 14:05:56;;;;;;;7.20;5.10;;;;;;;;;;10244964;28;20443;-61
2023/07/11 14:10:56;;;;;;;5.90;5.18;;;;;;;;;;10244855;28;20078;-62
2023/07/11 14:15:57;;;;;;;6.78;4.95;;;;;;;;;;10237276;28;20058;-61
2023/07/11 14:20:58;;;;;;;10.07;5.57;;;;;;;;;;10238414;28;20067;-63
2023/07/11 14:26:00;;;;;;;5.57;5.03;;;;;;;;;;10231342;28;20039;-61
2023/07/11 14:31:10;;;;;;;5.55;4.95;;;;;;;;;;10237437;28;20048;-61
2023/07/11 14:36:11;;;;;;;7.38;4.78;;;;;;;;;;10236020;28;20023;-61
2023/07/11 14:41:11;;;;;;;6.57;4.85;;;;;;;;;;10244895;28;20163;-62
2023/07/11 14:46:12;;;;;;;5.65;5.07;;;;;;;;;;10244964;28;20031;-61
2023/07/11 14:51:13;;;;;;;9.95;5.28;;;;;;;;;;10238560;28;20078;-59
2023/07/11 14:56:17;;;;;;;6.88;5.05;;;;;;;;;;10244372;28;20628;-59
2023/07/11 15:01:17;;;;;;;5.70;5.07;;;;;;;;;;10243917;28;20019;-61
2023/07/11 15:06:18;;;;;;;5.35;4.85;;;;;;;;;;10243938;28;20027;-62
2023/07/11 15:11:25;;;;;;;8.82;4.88;;;;;;;;;;10242881;28;20037;-62
2023/07/11 15:16:26;;;;;;;6.40;5.00;;;;;;;;;;10243814;28;20627;-61
2023/07/11 15:21:27;;;;;;;5.10;4.60;;;;;;;;;;10244262;28;20295;-61
2023/07/11 15:26:28;;;;;;;5.60;5.05;;;;;;;;;;10232392;28;20037;-61
2023/07/11 15:31:29;;;;;;;6.32;5.22;;;;;;;;;;10242688;28;20396;-62
2023/07/11 15:36:30;;;;;;;5.82;5.13;;;;;;;;;;10239556;28;20067;-61
2023/07/11 15:41:31;;;;;;;7.32;5.15;;;;;;;;;;10244790;28;20031;-61
2023/07/11 15:46:31;;;;;;;9.13;6.03;;;;;;;;;;10240059;28;20023;-61
2023/07/11 15:51:32;;;;;;;6.80;6.10;;;;;;;;;;10244876;28;20023;-62
2023/07/11 15:56:32;;;;;;;7.55;6.13;;;;;;;;;;10249052;28;20031;-61
2023/07/11 16:01:33;;;;;;;9.55;6.32;;;;;;;;;;10241826;28;20034;-61
2023/07/11 16:06:33;;;;;;;7.65;6.30;;;;;;;;;;10248881;28;20035;-62
2023/07/11 16:11:34;;;;;;;10.90;7.05;;;;;;;;;;10246011;28;20034;-62
2023/07/11 16:16:34;;;;;;;11.15;6.50;;;;;;;;;;10249249;28;20031;-62
2023/07/11 16:21:35;;;;;;;8.90;6.30;;;;;;;;;;10250930;28;20027;-61
2023/07/11 16:26:35;;;;;;;9.45;7.10;;;;;;;;;;10239063;28;20035;-62
2023/07/11 16:31:36;;;;;;;9.27;6.20;;;;;;;;;;10240051;28;20046;-61
2023/07/11 16:36:37;;;;;;;11.00;6.10;;;;;;;;;;10238337;28;20050;-61
2023/07/11 16:41:37;;;;;;;7.32;5.80;;;;;;;;;;10249131;28;20023;-62
2023/07/11 16:46:43;;;;;;;11.48;6.20;;;;;;;;;;10239063;28;20035;-62
2023/07/11 16:51:44;;;;;;;8.93;5.93;;;;;;;;;;10236912;28;20487;-61
2023/07/11 16:56:46;;;;;;;7.85;6.60;;;;;;;;;;10238628;28;20052;-61
2023/07/11 17:01:49;;;;;;;9.05;5.88;;;;;;;;;;10249075;28;20030;-62
2023/07/11 17:06:49;;;;;;;6.85;6.15;;;;;;;;;;10235877;28;20037;-62
2023/07/11 17:11:52;;;;;;;7.85;6.43;;;;;;;;;;10245495;28;20030;-62
2023/07/11 17:16:56;;;;;;;9.10;6.45;;;;;;;;;;10241803;28;20118;-62
2023/07/11 17:21:58;;;;;;;7.88;6.68;;;;;;;;;;10238649;28;20123;-62
2023/07/11 17:27:00;;;;;;;13.90;6.85;;;;;;;;;;10234183;28;20491;-62
2023/07/11 17:32:01;;;;;;;11.52;6.60;;;;;;;;;;10251361;28;20467;-61
2023/07/11 17:37:04;;;;;;;8.55;7.20;;;;;;;;;;10242449;28;20098;-62
2023/07/11 17:42:08;;;;;;;15.75;7.25;;;;;;;;;;10241787;28;20066;-64
2023/07/11 17:47:21;;;;;;;9.80;6.60;;;;;;;;;;10239829;28;20062;-63
2023/07/11 17:52:28;;;;;;;9.10;6.28;;;;;;;;;;10232105;28;20023;-60
2023/07/11 17:57:36;;;;;;;6.70;6.00;;;;;;;;;;10243176;28;20042;-62
2023/07/11 18:02:39;;;;;;;7.47;6.40;;;;;;;;;;10246537;28;20484;-60
2023/07/11 18:07:41;;;;;;;7.40;6.35;;;;;;;;;;10241995;28;20487;-60
2023/07/11 18:12:41;;;;;;;9.45;6.57;;;;;;;;;;10241728;28;20031;-60
2023/07/11 18:17:42;;;;;;;10.02;6.90;;;;;;;;;;10240794;28;20476;-62
2023/07/11 18:22:43;;;;;;;8.48;6.40;;;;;;;;;;10244859;28;20489;-61
2023/07/11 18:27:44;;;;;;;10.15;7.05;;;;;;;;;;10242188;28;20023;-64
2023/07/11 18:32:45;;;;;;;10.15;6.72;;;;;;;;;;10244308;28;20055;-63
2023/07/11 18:37:47;;;;;;;16.70;6.80;;;;;;;;;;10244325;28;20035;-64
2023/07/11 18:42:48;;;;;;;13.15;7.18;;;;;;;;;;10251156;23;20054;-64
2023/07/11 18:47:54;;;;;;;9.65;6.53;;;;;;;;;;10237531;28;20027;-64
2023/07/11 18:52:54;;;;;;;8.65;6.05;;;;;;;;;;10232031;28;20050;-63
2023/07/11 18:57:55;;;;;;;17.48;6.78;;;;;;;;;;10224850;28;20046;-64
2023/07/11 19:02:56;;;;;;;9.70;6.75;;;;;;;;;;10226441;28;20027;-64
2023/07/11 19:07:57;;;;;;;8.15;6.25;;;;;;;;;;10234502;28;20587;-64
2023/07/11 19:12:57;;;;;;;11.15;6.47;;;;;;;;;;10235818;28;20479;-64
2023/07/11 19:18:02;;;;;;;9.80;6.03;;;;;;;;;;10234276;28;20031;-64
2023/07/11 19:23:11;;;;;;;11.50;6.45;;;;;;;;;;10234462;28;20086;-59
2023/07/11 19:28:37;;;;;;;11.38;6.22;;;;;;;;;;10238862;28;20042;-63
2023/07/11 19:33:37;;;;;;;12.18;6.80;;;;;;;;;;10237506;28;20038;-60
2023/07/11 19:38:39;;;;;;;10.40;5.63;;;;;;;;;;10243262;28;20031;-63
2023/07/11 19:43:39;;;;;;;11.32;5.90;;;;;;;;;;10230554;28;20043;-64
2023/07/11 19:48:41;;;;;;;8.45;5.70;;;;;;;;;;10237876;28;20031;-63
2023/07/11 19:53:41;;;;;;;12.18;6.53;;;;;;;;;;10230171;28;20664;-63
2023/07/11 19:58:42;;;;;;;15.43;6.60;;;;;;;;;;10234953;28;20034;-61
2023/07/11 20:03:43;;;;;;;11.05;6.22;;;;;;;;;;10239190;28;20386;-62
2023/07/11 20:08:45;;;;;;;15.00;6.20;;;;;;;;;;10231373;28;20035;-60
2023/07/11 20:13:46;;;;;;;8.32;5.35;;;;;;;;;;10229006;28;20039;-61
2023/07/11 20:18:47;;;;;;;19.45;5.20;;;;;;;;;;10234137;28;20087;-62
2023/07/11 20:23:50;;;;;;;11.73;5.45;;;;;;;;;;10244974;28;20111;-55
2023/07/11 20:28:51;;;;;;;8.18;4.88;;;;;;;;;;10240464;28;20039;-58
2023/07/11 20:33:52;;;;;;;13.75;4.97;;;;;;;;;;10240503;28;20491;-60
2023/07/11 20:38:54;;;;;;;11.82;4.70;;;;;;;;;;10239591;28;20039;-59
2023/07/11 20:43:57;;;;;;;8.90;4.68;;;;;;;;;;10239210;28;20065;-57
2023/07/11 20:48:59;;;;;;;14.57;4.55;;;;;;;;;;10242201;28;20481;-56
2023/07/11 20:54:00;;;;;;;7.85;5.07;;;;;;;;;;10247135;28;20439;-58
2023/07/11 20:59:02;;;;;;;11.13;4.65;;;;;;;;;;10239964;28;20019;-57
2023/07/11 21:04:03;;;;;;;13.23;4.63;;;;;;;;;;10237854;28;20031;-58
2023/07/11 21:09:10;;;;;;;18.05;4.78;;;;;;;;;;10226311;28;21088;-56
2023/07/11 21:14:12;;;;;;;11.95;5.10;;;;;;;;;;10223327;28;20039;-57
2023/07/11 21:19:22;;;;;;;8.32;4.85;;;;;;;;;;10248228;28;20082;-58
2023/07/11 21:24:23;;;;;;;14.35;4.78;;;;;;;;;;10243430;28;20053;-58
2023/07/11 21:29:23;;;;;;;5.50;3.95;;;;;;;;;;10244688;28;20027;-63
2023/07/11 21:34:26;;;;;;;16.45;4.57;;;;;;;;;;10247110;28;20042;-62
2023/07/11 21:39:26;;;;;;;16.48;4.63;;;;;;;;;;10224707;28;20028;-62
2023/07/11 21:44:27;;;;;;;12.57;4.20;;;;;;;;;;10235854;28;20051;-61
2023/07/11 21:49:27;;;;;;;13.88;5.00;;;;;;;;;;10219254;28;20555;-62
2023/07/11 21:54:28;;;;;;;7.18;4.53;;;;;;;;;;10239662;28;20484;-62
2023/07/11 21:59:29;;;;;;;10.85;4.30;;;;;;;;;;10227257;28;20448;-62
2023/07/11 22:04:29;;;;;;;10.68;4.63;;;;;;;;;;10241602;28;20472;-62
2023/07/11 22:09:30;;;;;;;11.02;4.72;;;;;;;;;;10239797;28;20196;-62
2023/07/11 22:14:30;;;;;;;8.88;4.30;;;;;;;;;;10237455;28;20039;-62
2023/07/11 22:19:31;;;;;;;16.45;4.47;;;;;;;;;;10230507;28;20027;-62
2023/07/11 22:24:32;;;;;;;9.07;4.68;;;;;;;;;;10234090;28;20038;-58
2023/07/11 22:29:32;;;;;;;10.18;4.07;;;;;;;;;;10229841;28;20094;-63
2023/07/11 22:34:33;;;;;;;9.73;4.68;;;;;;;;;;10235337;28;20408;-63
2023/07/11 22:39:33;;;;;;;5.22;3.50;;;;;;;;;;10234512;28;20036;-62
2023/07/11 22:44:34;;;;;;;8.00;4.63;;;;;;;;;;10242738;28;20044;-62
2023/07/11 22:49:34;;;;;;;10.13;4.35;;;;;;;;;;10240277;28;20046;-63
2023/07/11 22:54:35;;;;;;;4.35;3.90;;;;;;;;;;10237062;28;20038;-61
2023/07/11 22:59:36;;;;;;;6.65;4.57;;;;;;;;;;10243335;28;20027;-63
2023/07/11 23:04:36;;;;;;;7.20;4.40;;;;;;;;;;10231435;28;20381;-62
2023/07/11 23:09:37;;;;;;;12.80;4.00;;;;;;;;;;10220539;28;20388;-62
2023/07/11 23:14:45;;;;;;;6.75;3.70;;;;;;;;;;10242726;28;20027;-63
2023/07/11 23:19:54;;;;;;;4.93;3.75;;;;;;;;;;10241668;28;20479;-63
2023/07/11 23:24:55;;;;;;;5.82;4.20;;;;;;;;;;10240923;28;20027;-58
2023/07/11 23:29:55;;;;;;;4.55;3.72;;;;;;;;;;10240127;28;20471;-64
2023/07/11 23:34:56;;;;;;;6.72;4.20;;;;;;;;;;10219281;28;20047;-65
2023/07/11 23:39:57;;;;;;;5.65;3.80;;;;;;;;;;10225427;28;20026;-64
2023/07/11 23:44:58;;;;;;;6.13;3.83;;;;;;;;;;10242371;28;20403;-64
2023/07/11 23:49:58;;;;;;;7.32;4.07;;;;;;;;;;10240594;28;20023;-65
2023/07/11 23:54:59;;;;;;;5.93;3.92;;;;;;;;;;10234331;28;20035;-65
